CheckWX is a tool to help pilots better visualize weather data.  It is not intended as a substitute for an official pre-flight weather briefing.

21:31:19 UTC

KMDT TAF
Harrisburg International Airport
Harrisburg, Pennsylvania, USA
KMDT 161804Z 1618/1718 25008KT P6SM SCT040 OVC070 FM162000 26009KT 6SM -TSRA BR SCT025 OVC050CB FM170000 27006KT P6SM VCTS BKN050CB FM170200 29004KT P6SM BKN100 FM171200 33004KT P6SM OVC050

Jun-16@
18:00 UTC

Jun-16 @ 18:00 UTC

Jun-16@
20:00 UTC

Jun-16 @ 20:00 UTC

KMDT 161804Z 1618/1718 25008KT P6SM SCT040 OVC070

Expired

Wind
  • 250° at 8 KTS
Cloud Levels
  • Scattered at 4,000' AGL
  • Overcast at 7,000' AGL

Jun-16@
20:00 UTC

Jun-16 @ 20:00 UTC

Jun-17@
00:00 UTC

Jun-17 @ 00:00 UTC

FM162000 26009KT 6SM -TSRA BR SCT025 OVC050CB

From

From Standard forecast or significant change

Wind
  • 260° at 9 KTS
Conditions
Light Thunderstorm, Light Rain, Mist
Cloud Levels
  • Scattered at 2,500' AGL
  • Overcast at 5,000' AGL

Jun-17@
00:00 UTC

Jun-17 @ 00:00 UTC

Jun-17@
02:00 UTC

Jun-17 @ 02:00 UTC

FM170000 27006KT P6SM VCTS BKN050CB

From

From Standard forecast or significant change

Wind
  • 270° at 6 KTS
Conditions
Area Thunderstorm
Cloud Levels
  • Broken at 5,000' AGL

Jun-17@
02:00 UTC

Jun-17 @ 02:00 UTC

Jun-17@
12:00 UTC

Jun-17 @ 12:00 UTC

FM170200 29004KT P6SM BKN100

From

From Standard forecast or significant change

Wind
  • 290° at 4 KTS
Cloud Levels
  • Broken at 10,000' AGL

Jun-17@
12:00 UTC

Jun-17 @ 12:00 UTC

Jun-17@
18:00 UTC

Jun-17 @ 18:00 UTC

FM171200 33004KT P6SM OVC050

From

From Standard forecast or significant change

Wind
  • 330° at 4 KTS
Cloud Levels
  • Overcast at 5,000' AGL